Bloomsburg, Pennsylvania
Current Conditions -  °F | °C
As of 8:15 PM on Monday 20 Oct 2014 (Local Time) from KHZL Reporting Station
Overcast Overcast  
Wind Chill: 52°   Ceiling: 7000
Heat Index: 52°   Visibility: 10mi
Dew Point: 41°   Wind: 5mph
Humidity: 67%   Direction: 150°SSE
Pressure: 29.96"   Gusts: NA
Location:  41°N, 76.45°W
Report Text: KHZL 210015Z AUTO 15004KT 10SM BKN070 OVC090 11/05 A2996 RMK AO2
Loading
Personal Weather Stations






























Interactive Weather Map New forecast layout! Learn more

10-Day Weather Forecast

Advertisements
Track Severe Weather on mobile